createdAt,value
2022-10-06T00:00:48.856Z,16.90
2022-10-06T00:03:15.767Z,16.90
2022-10-06T00:05:42.750Z,16.80
2022-10-06T00:08:10.441Z,16.80
2022-10-06T00:10:37.236Z,16.70
2022-10-06T00:13:04.026Z,16.70
2022-10-06T00:15:31.992Z,16.70
2022-10-06T00:17:59.248Z,16.70
2022-10-06T00:20:26.702Z,16.70
2022-10-06T00:22:53.856Z,16.60
2022-10-06T00:25:21.904Z,16.60
2022-10-06T00:27:50.461Z,16.60
2022-10-06T00:30:27.759Z,16.60
2022-10-06T00:32:59.007Z,16.60
2022-10-06T00:35:26.492Z,16.50
2022-10-06T00:37:53.673Z,16.50
2022-10-06T00:40:20.922Z,16.50
2022-10-06T00:42:49.900Z,16.40
2022-10-06T00:45:17.198Z,16.40
2022-10-06T00:47:44.137Z,16.40
2022-10-06T00:50:12.004Z,16.40
2022-10-06T00:52:39.577Z,16.40
2022-10-06T00:55:10.403Z,16.40
2022-10-06T00:57:38.469Z,16.40
2022-10-06T01:00:06.571Z,16.30
2022-10-06T01:02:45.157Z,16.30
2022-10-06T01:05:15.041Z,16.30
2022-10-06T01:07:41.915Z,16.20
2022-10-06T01:10:09.296Z,16.20
2022-10-06T01:12:36.161Z,16.20
2022-10-06T01:15:03.185Z,16.20
2022-10-06T01:17:30.125Z,16.20
2022-10-06T01:20:02.635Z,16.20
2022-10-06T01:22:30.951Z,16.20
2022-10-06T01:24:57.838Z,16.20
2022-10-06T01:27:25.705Z,16.10
2022-10-06T01:29:53.979Z,16.10
2022-10-06T01:32:21.666Z,16.10
2022-10-06T01:34:48.479Z,16.10
2022-10-06T01:37:15.804Z,16.10
2022-10-06T01:39:43.371Z,16.10
2022-10-06T01:42:10.657Z,16.10
2022-10-06T01:44:37.859Z,16.00
2022-10-06T01:47:05.982Z,16.00
2022-10-06T01:49:32.999Z,16.00
2022-10-06T01:52:00.448Z,15.90
2022-10-06T01:54:27.420Z,16.00
2022-10-06T01:56:55.337Z,15.90
2022-10-06T01:59:22.279Z,15.90
2022-10-06T02:01:49.119Z,15.90
2022-10-06T02:04:16.113Z,15.90
2022-10-06T02:06:43.815Z,15.90
2022-10-06T02:09:10.567Z,15.90
2022-10-06T02:11:39.741Z,15.80
2022-10-06T02:17:02.552Z,15.80
2022-10-06T02:19:29.453Z,15.80
2022-10-06T02:21:58.485Z,15.80
2022-10-06T02:24:25.208Z,15.70
2022-10-06T02:26:52.689Z,15.70
2022-10-06T02:29:20.451Z,15.70
2022-10-06T02:31:48.175Z,15.70
2022-10-06T02:34:15.587Z,15.70
2022-10-06T02:36:42.374Z,15.60
2022-10-06T02:39:09.288Z,15.60
2022-10-06T02:41:35.976Z,15.60
2022-10-06T02:44:03.428Z,15.60
2022-10-06T02:46:31.517Z,15.60
2022-10-06T02:48:58.869Z,15.50
2022-10-06T02:51:25.632Z,15.50
2022-10-06T02:53:53.476Z,15.50
2022-10-06T02:56:22.158Z,15.50
2022-10-06T02:58:50.142Z,15.50
2022-10-06T03:01:30.010Z,15.40
2022-10-06T03:03:59.854Z,15.40
2022-10-06T03:06:28.265Z,15.40
2022-10-06T03:09:10.323Z,15.30
2022-10-06T03:11:40.908Z,15.30
2022-10-06T03:14:09.221Z,15.30
2022-10-06T03:16:39.043Z,15.20
2022-10-06T03:19:09.601Z,15.30
2022-10-06T03:21:38.381Z,15.30
2022-10-06T03:24:05.163Z,15.20
2022-10-06T03:26:33.179Z,15.30
2022-10-06T03:29:00.692Z,15.20
2022-10-06T03:31:27.701Z,15.20
2022-10-06T03:33:56.591Z,15.20
2022-10-06T03:36:27.946Z,15.20
2022-10-06T03:38:54.921Z,15.10
2022-10-06T03:41:25.291Z,15.20
2022-10-06T03:43:53.344Z,15.20
2022-10-06T03:46:21.987Z,15.20
2022-10-06T03:48:49.793Z,15.20
2022-10-06T03:51:19.412Z,15.00
2022-10-06T03:53:47.201Z,15.20
2022-10-06T03:56:15.756Z,15.10
2022-10-06T03:58:44.026Z,15.10
2022-10-06T04:01:12.934Z,15.20
2022-10-06T04:03:40.269Z,15.10
2022-10-06T04:06:07.995Z,15.20
2022-10-06T04:08:35.182Z,15.20
2022-10-06T04:11:09.971Z,15.10
2022-10-06T04:13:37.499Z,15.10
2022-10-06T04:16:11.259Z,15.10
2022-10-06T04:18:38.233Z,15.10
2022-10-06T04:21:05.287Z,15.10
2022-10-06T04:23:32.423Z,15.10
2022-10-06T04:26:03.456Z,15.10
2022-10-06T04:28:30.545Z,15.10
2022-10-06T04:31:01.034Z,15.00
2022-10-06T04:33:28.478Z,15.00
2022-10-06T04:35:59.198Z,15.10
2022-10-06T04:38:27.206Z,15.00
2022-10-06T04:40:54.301Z,15.00
2022-10-06T04:43:21.442Z,15.00
2022-10-06T04:45:55.666Z,15.00
2022-10-06T04:48:22.570Z,15.00
2022-10-06T04:51:15.994Z,15.00
2022-10-06T04:53:46.632Z,14.90
2022-10-06T04:56:16.683Z,14.90
2022-10-06T04:58:44.698Z,14.80
2022-10-06T05:01:13.194Z,14.80
2022-10-06T05:03:40.197Z,14.80
2022-10-06T05:06:08.652Z,14.90
2022-10-06T05:08:36.274Z,14.80
2022-10-06T05:11:04.452Z,14.80
2022-10-06T05:13:31.656Z,14.80
2022-10-06T05:16:00.331Z,14.80
2022-10-06T05:18:30.579Z,14.80
2022-10-06T05:20:59.562Z,14.80
2022-10-06T05:23:30.091Z,14.80
2022-10-06T05:26:01.594Z,14.80
2022-10-06T05:28:30.450Z,14.80
2022-10-06T05:31:02.799Z,14.80
2022-10-06T05:33:31.655Z,14.80
2022-10-06T05:35:59.486Z,14.80
2022-10-06T05:38:27.857Z,14.80
2022-10-06T05:41:09.877Z,14.70
2022-10-06T05:43:38.419Z,14.70
2022-10-06T05:46:06.964Z,14.70
2022-10-06T05:48:33.987Z,14.80
2022-10-06T05:51:02.252Z,14.80
2022-10-06T05:53:30.704Z,14.80
2022-10-06T05:56:08.256Z,14.80
2022-10-06T05:58:36.213Z,14.80
2022-10-06T06:01:07.104Z,14.80
2022-10-06T06:03:33.936Z,14.80
2022-10-06T06:06:00.661Z,14.80
2022-10-06T06:08:28.343Z,14.70
2022-10-06T06:10:55.477Z,14.70
2022-10-06T06:13:22.818Z,14.80
2022-10-06T06:16:02.683Z,14.80
2022-10-06T06:18:32.564Z,14.80
2022-10-06T06:21:00.863Z,14.80
2022-10-06T06:23:32.472Z,14.80
2022-10-06T06:26:03.994Z,14.80
2022-10-06T06:28:34.263Z,14.80
2022-10-06T06:31:04.666Z,14.80
2022-10-06T06:33:31.745Z,14.80
2022-10-06T06:36:01.202Z,14.80
2022-10-06T06:38:28.854Z,14.80
2022-10-06T06:40:55.910Z,14.80
2022-10-06T06:43:22.957Z,14.80
2022-10-06T06:46:20.377Z,14.90
2022-10-06T06:48:56.932Z,14.90
2022-10-06T06:51:24.164Z,14.90
2022-10-06T06:53:51.837Z,15.00
2022-10-06T06:56:19.266Z,15.00
2022-10-06T06:58:47.391Z,15.00
2022-10-06T07:01:23.541Z,15.00
2022-10-06T07:03:58.942Z,15.00
2022-10-06T07:06:31.107Z,15.10
2022-10-06T07:09:00.522Z,15.10
2022-10-06T07:11:32.105Z,15.10
2022-10-06T07:14:12.433Z,15.20
2022-10-06T07:17:01.474Z,15.20
2022-10-06T07:19:47.561Z,15.20
2022-10-06T07:22:35.415Z,15.30
2022-10-06T07:25:11.933Z,15.30
2022-10-06T07:27:47.084Z,15.40
2022-10-06T07:30:19.390Z,15.40
2022-10-06T07:32:50.308Z,15.50
2022-10-06T07:35:20.355Z,15.50
2022-10-06T07:37:49.880Z,15.60
2022-10-06T07:40:17.141Z,15.60
2022-10-06T07:42:53.801Z,15.60
2022-10-06T07:45:38.997Z,15.70
2022-10-06T07:48:10.965Z,15.60
2022-10-06T07:50:39.396Z,15.70
2022-10-06T07:53:08.758Z,15.70
2022-10-06T07:55:40.660Z,15.70
2022-10-06T07:58:23.902Z,15.70
2022-10-06T08:00:53.006Z,15.80
2022-10-06T08:03:20.192Z,15.80
2022-10-06T08:05:47.639Z,15.80
2022-10-06T08:08:17.827Z,15.90
2022-10-06T08:10:51.681Z,15.90
2022-10-06T08:13:18.462Z,16.00
2022-10-06T08:15:45.189Z,16.00
2022-10-06T08:18:27.139Z,16.10
2022-10-06T08:20:59.047Z,16.20
2022-10-06T08:23:26.228Z,16.20
2022-10-06T08:25:54.317Z,16.30
2022-10-06T08:28:22.476Z,16.40
2022-10-06T08:30:52.555Z,16.40
2022-10-06T08:33:21.602Z,16.50
2022-10-06T08:35:48.812Z,16.50
2022-10-06T08:38:15.962Z,16.70
2022-10-06T08:40:44.185Z,16.80
2022-10-06T08:43:16.213Z,16.90
2022-10-06T08:45:45.172Z,17.00
2022-10-06T08:48:19.738Z,17.10
2022-10-06T08:51:05.497Z,17.10
2022-10-06T08:53:32.461Z,17.30
2022-10-06T08:56:18.376Z,17.40
2022-10-06T08:58:56.825Z,17.40
2022-10-06T09:01:27.409Z,17.50
2022-10-06T09:04:02.084Z,17.50
2022-10-06T09:06:34.556Z,17.20
2022-10-06T09:09:07.738Z,17.70
2022-10-06T09:11:54.725Z,17.80
2022-10-06T09:14:24.959Z,17.90
2022-10-06T09:16:53.815Z,17.90
2022-10-06T09:19:24.755Z,18.00
2022-10-06T09:21:53.560Z,18.00
2022-10-06T09:24:28.288Z,18.00
2022-10-06T09:26:57.708Z,18.10
2022-10-06T09:29:25.590Z,18.20
2022-10-06T09:31:55.267Z,18.30
2022-10-06T09:34:39.299Z,18.30
2022-10-06T09:37:12.888Z,18.40
2022-10-06T09:39:41.682Z,18.40
2022-10-06T09:42:13.368Z,18.40
2022-10-06T09:44:40.506Z,18.50
2022-10-06T09:47:26.225Z,18.50
2022-10-06T09:50:16.476Z,18.60
2022-10-06T09:52:47.856Z,18.70
2022-10-06T09:55:16.074Z,18.80
2022-10-06T09:57:50.325Z,18.90
2022-10-06T10:00:35.888Z,19.00
2022-10-06T10:03:04.498Z,19.00
2022-10-06T10:05:39.439Z,19.10
2022-10-06T10:08:26.630Z,19.10
2022-10-06T10:11:27.779Z,19.20
2022-10-06T10:13:58.251Z,19.30
2022-10-06T10:16:26.236Z,19.30
2022-10-06T10:18:53.386Z,19.50
2022-10-06T10:21:25.412Z,19.60
2022-10-06T10:23:57.238Z,19.70
2022-10-06T10:26:44.905Z,19.80
2022-10-06T10:29:32.867Z,20.00
2022-10-06T10:32:03.351Z,20.10
2022-10-06T10:35:06.156Z,20.20
2022-10-06T10:37:52.757Z,20.30
2022-10-06T10:40:33.758Z,20.50
2022-10-06T10:46:54.192Z,20.70
2022-10-06T10:49:29.390Z,20.80
2022-10-06T10:51:59.535Z,20.80
2022-10-06T10:54:46.937Z,21.00
2022-10-06T10:57:18.216Z,21.00
2022-10-06T11:31:45.619Z,22.20
2022-10-06T11:34:15.137Z,22.20
2022-10-06T11:37:12.323Z,22.30
2022-10-06T11:39:54.746Z,22.40
2022-10-06T11:47:14.810Z,22.60
2022-10-06T11:50:00.918Z,22.70
2022-10-06T11:52:48.963Z,22.80
2022-10-06T12:16:38.063Z,23.10
2022-10-06T12:37:53.777Z,22.70
2022-10-06T12:54:39.520Z,24.00
2022-10-06T12:57:54.810Z,24.20
2022-10-06T13:04:19.762Z,24.40
2022-10-06T13:06:53.371Z,24.60
2022-10-06T13:09:40.937Z,24.70
2022-10-06T13:12:36.382Z,24.50
2022-10-06T13:15:22.478Z,24.90
2022-10-06T13:17:56.909Z,25.10
2022-10-06T13:20:37.103Z,25.20
2022-10-06T13:23:23.066Z,25.30
2022-10-06T13:25:54.427Z,25.50
2022-10-06T13:28:24.231Z,25.70
2022-10-06T13:30:57.307Z,25.70
2022-10-06T13:33:25.550Z,26.00
2022-10-06T13:35:53.070Z,26.10
2022-10-06T13:38:20.913Z,25.90
2022-10-06T13:41:03.021Z,26.30
2022-10-06T13:43:30.444Z,26.30
2022-10-06T13:45:58.214Z,26.40
2022-10-06T13:48:26.489Z,26.50
2022-10-06T13:50:53.674Z,26.20
2022-10-06T13:53:25.790Z,26.50
2022-10-06T13:55:53.252Z,26.50
2022-10-06T13:58:24.013Z,26.60
2022-10-06T14:01:00.901Z,26.50
2022-10-06T14:06:07.486Z,26.50
2022-10-06T14:08:35.105Z,26.60
2022-10-06T14:11:07.435Z,26.60
2022-10-06T14:13:40.988Z,26.50
2022-10-06T14:16:10.714Z,26.60
2022-10-06T14:18:39.326Z,26.60
2022-10-06T14:21:20.189Z,26.50
2022-10-06T14:23:47.187Z,26.50
2022-10-06T14:26:15.212Z,26.40
2022-10-06T14:28:45.309Z,26.30
2022-10-06T14:31:14.685Z,26.30
2022-10-06T14:33:41.903Z,26.20
2022-10-06T14:36:15.119Z,26.20
2022-10-06T14:38:41.898Z,26.30
2022-10-06T14:41:08.708Z,26.20
2022-10-06T14:43:35.485Z,26.30
2022-10-06T14:46:05.464Z,26.30
2022-10-06T14:48:33.189Z,26.30
2022-10-06T14:51:02.112Z,26.30
2022-10-06T14:53:29.130Z,26.30
2022-10-06T14:56:06.079Z,26.40
2022-10-06T14:58:35.711Z,26.40
2022-10-06T15:01:09.693Z,26.30
2022-10-06T15:03:36.788Z,26.30
2022-10-06T15:06:23.364Z,26.20
2022-10-06T15:08:51.378Z,26.10
2022-10-06T15:11:19.348Z,26.00
2022-10-06T15:13:46.346Z,25.90
2022-10-06T15:16:16.530Z,25.80
2022-10-06T15:18:43.872Z,25.70
2022-10-06T15:21:11.432Z,25.70
2022-10-06T15:23:39.020Z,25.70
2022-10-06T15:26:25.185Z,25.70
2022-10-06T15:29:01.041Z,25.70
2022-10-06T15:31:28.851Z,25.80
2022-10-06T15:33:55.656Z,25.80
2022-10-06T15:36:24.165Z,25.80
2022-10-06T15:38:51.437Z,25.70
2022-10-06T15:41:18.836Z,25.80
2022-10-06T15:43:57.694Z,25.70
2022-10-06T15:46:27.584Z,25.70
2022-10-06T15:48:55.221Z,25.80
2022-10-06T15:51:22.276Z,25.80
2022-10-06T15:53:50.502Z,25.80
2022-10-06T15:56:17.408Z,25.80
2022-10-06T15:58:44.711Z,25.80
2022-10-06T16:01:31.255Z,25.70
2022-10-06T16:04:00.209Z,25.70
2022-10-06T16:07:05.530Z,25.60
2022-10-06T16:09:33.436Z,25.50
2022-10-06T16:12:02.555Z,25.40
2022-10-06T16:14:29.340Z,25.30
2022-10-06T16:16:59.446Z,25.20
2022-10-06T16:19:27.260Z,24.80
2022-10-06T16:21:58.091Z,24.90
2022-10-06T16:24:26.540Z,24.70
2022-10-06T16:26:54.288Z,24.60
2022-10-06T16:29:21.459Z,24.40
2022-10-06T16:31:48.718Z,24.30
2022-10-06T16:34:15.880Z,24.20
2022-10-06T16:36:42.645Z,24.10
2022-10-06T16:39:17.146Z,24.00
2022-10-06T16:41:44.038Z,23.90
2022-10-06T16:44:11.197Z,23.80
2022-10-06T16:46:38.131Z,23.60
2022-10-06T16:49:05.428Z,23.50
2022-10-06T16:51:33.436Z,23.40
2022-10-06T16:54:01.267Z,23.30
2022-10-06T16:56:34.753Z,23.20
2022-10-06T16:59:06.612Z,23.10
2022-10-06T17:01:34.950Z,23.10
2022-10-06T17:04:03.402Z,22.90
2022-10-06T17:06:30.837Z,22.80
2022-10-06T17:08:58.076Z,22.70
2022-10-06T17:11:25.505Z,22.60
2022-10-06T17:13:54.248Z,22.50
2022-10-06T17:16:23.278Z,22.40
2022-10-06T17:18:51.221Z,22.30
2022-10-06T17:21:40.383Z,22.30
2022-10-06T17:24:05.478Z,22.20
2022-10-06T17:26:36.595Z,22.10
2022-10-06T17:29:07.774Z,22.10
2022-10-06T17:31:36.119Z,22.00
2022-10-06T17:34:03.656Z,21.90
2022-10-06T17:36:30.546Z,21.90
2022-10-06T17:39:03.984Z,21.80
2022-10-06T17:41:41.427Z,21.70
2022-10-06T17:44:21.279Z,21.70
2022-10-06T17:46:49.672Z,21.60
2022-10-06T17:49:17.962Z,21.50
2022-10-06T17:51:50.882Z,21.50
2022-10-06T17:54:20.127Z,21.40
2022-10-06T17:56:48.354Z,21.40
2022-10-06T17:59:16.711Z,21.30
2022-10-06T18:01:46.515Z,21.30
2022-10-06T18:04:16.830Z,21.20
2022-10-06T18:06:44.694Z,21.20
2022-10-06T18:09:12.445Z,21.20
2022-10-06T18:11:41.785Z,20.70
2022-10-06T18:14:10.327Z,21.00
2022-10-06T18:16:39.634Z,21.00
2022-10-06T18:19:08.078Z,20.90
2022-10-06T18:21:39.080Z,20.90
2022-10-06T18:24:07.216Z,20.80
2022-10-06T18:26:38.340Z,20.80
2022-10-06T18:29:05.942Z,20.70
2022-10-06T18:31:32.896Z,20.70
2022-10-06T18:36:47.096Z,20.60
2022-10-06T18:39:13.879Z,20.60
2022-10-06T18:41:42.181Z,20.50
2022-10-06T18:44:09.167Z,20.50
2022-10-06T18:46:54.928Z,20.40
2022-10-06T18:49:22.735Z,20.40
2022-10-06T18:51:58.079Z,20.30
2022-10-06T18:54:27.157Z,20.30
2022-10-06T18:56:54.775Z,20.30
2022-10-06T18:59:26.907Z,20.50
2022-10-06T19:01:54.709Z,20.20
2022-10-06T19:04:22.126Z,20.20
2022-10-06T19:06:51.219Z,20.10
2022-10-06T19:09:18.857Z,20.10
2022-10-06T19:11:51.881Z,20.00
2022-10-06T19:14:19.255Z,20.00
2022-10-06T19:16:47.020Z,20.00
2022-10-06T19:19:15.987Z,20.00
2022-10-06T19:21:49.348Z,20.00
2022-10-06T19:24:17.669Z,19.90
2022-10-06T19:26:47.347Z,19.80
2022-10-06T19:29:14.951Z,19.80
2022-10-06T19:31:45.247Z,19.80
2022-10-06T19:34:13.438Z,19.80
2022-10-06T19:36:41.166Z,19.80
2022-10-06T19:39:10.564Z,19.70
2022-10-06T19:41:57.292Z,19.70
2022-10-06T19:44:24.616Z,19.70
2022-10-06T19:46:51.663Z,19.60
2022-10-06T19:49:18.653Z,19.60
2022-10-06T19:51:45.474Z,19.60
2022-10-06T19:54:12.381Z,19.50
2022-10-06T19:56:41.456Z,19.50
2022-10-06T19:59:08.845Z,19.90
2022-10-06T20:01:35.840Z,19.40
2022-10-06T20:04:03.173Z,19.40
2022-10-06T20:06:30.920Z,19.40
2022-10-06T20:08:58.230Z,19.30
2022-10-06T20:11:27.613Z,19.40
2022-10-06T20:13:54.425Z,19.30
2022-10-06T20:16:21.298Z,19.30
2022-10-06T20:18:50.430Z,19.20
2022-10-06T20:21:18.802Z,19.20
2022-10-06T20:23:49.471Z,19.20
2022-10-06T20:26:17.676Z,19.20
2022-10-06T20:28:45.027Z,19.10
2022-10-06T20:31:16.721Z,19.10
2022-10-06T20:33:43.859Z,19.10
2022-10-06T20:36:11.086Z,19.00
2022-10-06T20:38:56.586Z,19.00
2022-10-06T20:41:23.433Z,19.00
2022-10-06T20:43:53.770Z,19.00
2022-10-06T20:46:22.756Z,19.00
2022-10-06T20:48:50.404Z,18.90
2022-10-06T20:51:17.803Z,18.90
2022-10-06T20:53:54.504Z,18.90
2022-10-06T20:56:21.960Z,18.90
2022-10-06T20:58:50.081Z,18.70
2022-10-06T21:01:17.634Z,18.80
2022-10-06T21:03:46.475Z,18.70
2022-10-06T21:06:14.499Z,18.70
2022-10-06T21:08:44.006Z,18.60
2022-10-06T21:11:11.946Z,18.60
2022-10-06T21:13:39.485Z,18.60
2022-10-06T21:16:06.726Z,18.60
2022-10-06T21:18:35.534Z,18.60
2022-10-06T21:21:07.557Z,18.60
2022-10-06T21:23:38.876Z,18.50
2022-10-06T21:26:07.463Z,18.50
2022-10-06T21:28:34.979Z,18.50
2022-10-06T21:31:02.609Z,18.40
2022-10-06T21:33:29.842Z,18.40
2022-10-06T21:36:00.054Z,18.50
2022-10-06T21:38:27.334Z,18.40
2022-10-06T21:40:54.462Z,18.40
2022-10-06T21:43:21.425Z,18.30
2022-10-06T21:45:53.830Z,17.90
2022-10-06T21:48:27.792Z,18.30
2022-10-06T21:50:54.491Z,18.20
2022-10-06T21:53:21.622Z,18.20
2022-10-06T21:55:48.362Z,18.40
2022-10-06T21:58:15.137Z,18.10
2022-10-06T22:00:41.847Z,18.10
2022-10-06T22:03:08.767Z,18.10
2022-10-06T22:05:35.522Z,18.00
2022-10-06T22:08:02.363Z,18.00
2022-10-06T22:10:29.047Z,18.00
2022-10-06T22:12:55.798Z,18.00
2022-10-06T22:15:22.558Z,17.90
2022-10-06T22:17:49.331Z,17.90
2022-10-06T22:20:16.044Z,17.80
2022-10-06T22:22:42.836Z,17.90
2022-10-06T22:25:09.575Z,17.90
2022-10-06T22:27:36.393Z,17.80
2022-10-06T22:30:03.223Z,17.80
2022-10-06T22:32:30.107Z,17.80
2022-10-06T22:34:57.410Z,17.80
2022-10-06T22:37:24.134Z,17.70
2022-10-06T22:39:50.839Z,17.70
2022-10-06T22:42:17.631Z,17.70
2022-10-06T22:44:44.328Z,17.70
2022-10-06T22:47:11.109Z,17.70
2022-10-06T22:49:37.812Z,17.70
2022-10-06T22:52:04.617Z,17.60
2022-10-06T22:54:32.258Z,17.60
2022-10-06T22:56:59.081Z,17.60
2022-10-06T22:59:26.081Z,17.50
2022-10-06T23:01:53.926Z,17.60
2022-10-06T23:04:20.598Z,17.60
2022-10-06T23:06:47.346Z,17.50
2022-10-06T23:09:14.049Z,17.50
2022-10-06T23:11:40.794Z,17.50
2022-10-06T23:14:07.498Z,17.40
2022-10-06T23:16:34.457Z,17.40
2022-10-06T23:19:01.249Z,17.40
2022-10-06T23:21:28.011Z,17.40
2022-10-06T23:23:56.400Z,17.40
2022-10-06T23:26:23.669Z,17.30
2022-10-06T23:28:51.627Z,17.30
2022-10-06T23:31:18.590Z,17.30
2022-10-06T23:33:46.177Z,17.30
2022-10-06T23:36:14.259Z,17.20
2022-10-06T23:38:42.309Z,17.20
2022-10-06T23:41:09.227Z,17.20
2022-10-06T23:43:36.190Z,17.20
2022-10-06T23:46:03.633Z,17.20
2022-10-06T23:48:30.477Z,17.10
2022-10-06T23:51:04.946Z,17.20
2022-10-06T23:53:31.970Z,17.10
2022-10-06T23:55:58.727Z,17.10
2022-10-06T23:58:25.920Z,17.10
